createdAt,value
2019-04-14T00:02:40.346Z,10.13
2019-04-14T00:08:39.517Z,13.10
2019-04-14T00:11:30.167Z,14.75
2019-04-14T00:14:20.835Z,13.75
2019-04-14T00:17:11.079Z,12.80
2019-04-14T00:20:00.990Z,12.65
2019-04-14T00:22:51.255Z,13.95
2019-04-14T00:25:41.255Z,13.95
2019-04-14T00:28:30.089Z,14.35
2019-04-14T00:31:11.662Z,14.03
2019-04-14T00:46:02.338Z,13.80
2019-04-14T00:48:51.804Z,13.00
2019-04-14T00:51:42.479Z,12.68
2019-04-14T00:54:32.580Z,15.45
2019-04-14T01:00:29.756Z,10.82
2019-04-14T01:03:19.975Z,11.90
2019-04-14T01:06:09.726Z,14.68
2019-04-14T01:08:59.929Z,14.98
2019-04-14T01:11:50.973Z,14.55
2019-04-14T01:14:40.953Z,13.98
2019-04-14T01:17:31.125Z,10.85
2019-04-14T01:20:21.127Z,13.90
2019-04-14T01:23:10.825Z,14.45
2019-04-14T01:26:00.677Z,14.90
2019-04-14T01:28:50.471Z,14.58
2019-04-14T01:31:33.873Z,13.68
2019-04-14T01:34:41.820Z,14.83
2019-04-14T01:37:31.165Z,14.10
2019-04-14T01:40:21.236Z,13.72
2019-04-14T01:43:10.272Z,13.95
2019-04-14T01:46:09.600Z,17.00
2019-04-14T01:48:51.884Z,17.35
2019-04-14T01:52:01.386Z,19.77
2019-04-14T01:55:09.291Z,23.02
2019-04-14T01:58:17.148Z,17.75
2019-04-14T02:04:02.825Z,18.45
2019-04-14T02:06:52.709Z,16.07
2019-04-14T02:09:42.646Z,16.00
2019-04-14T02:15:39.569Z,16.67
2019-04-14T02:18:29.805Z,13.53
2019-04-14T02:21:19.466Z,15.72
2019-04-14T02:24:09.288Z,18.50
2019-04-14T02:26:59.145Z,16.35
2019-04-14T02:29:41.221Z,15.15
2019-04-14T02:32:57.362Z,14.35
2019-04-14T02:36:01.586Z,16.45
2019-04-14T02:41:51.309Z,17.48
2019-04-14T02:44:23.977Z,15.78
2019-04-14T02:47:27.044Z,16.10
2019-04-14T02:49:56.574Z,13.88
2019-04-14T02:52:52.094Z,16.30
2019-04-14T02:55:44.877Z,15.03
2019-04-14T02:58:38.558Z,13.43
2019-04-14T03:01:27.562Z,14.93
2019-04-14T03:04:16.984Z,14.03
2019-04-14T03:07:10.249Z,16.40
2019-04-14T03:18:47.075Z,19.23
2019-04-14T03:22:05.106Z,17.37
2019-04-14T03:24:53.773Z,17.57
2019-04-14T03:31:25.380Z,16.75
2019-04-14T03:37:31.537Z,17.82
2019-04-14T03:39:53.579Z,18.40
2019-04-14T03:42:48.493Z,17.42
2019-04-14T03:45:42.882Z,19.02
2019-04-14T03:48:54.044Z,14.70
2019-04-14T03:51:18.936Z,18.57
2019-04-14T03:54:03.217Z,15.35
2019-04-14T03:56:53.663Z,17.27
2019-04-14T03:59:43.522Z,13.70
2019-04-14T04:02:33.953Z,16.42
2019-04-14T04:05:23.771Z,17.80
2019-04-14T04:08:13.658Z,17.35
2019-04-14T04:11:04.051Z,17.40
2019-04-14T04:13:54.114Z,18.80
2019-04-14T04:17:03.583Z,18.57
2019-04-14T04:19:53.457Z,14.98
2019-04-14T04:23:03.029Z,15.50
2019-04-14T04:26:10.929Z,15.68
2019-04-14T04:29:20.023Z,15.65
2019-04-14T04:32:04.074Z,18.23
2019-04-14T04:38:11.865Z,17.50
2019-04-14T04:41:01.594Z,15.80
2019-04-14T04:43:51.830Z,18.40
2019-04-14T04:46:41.820Z,16.73
2019-04-14T04:49:32.185Z,20.90
2019-04-14T04:52:21.275Z,15.65
2019-04-14T04:55:11.200Z,17.70
2019-04-14T04:58:01.359Z,21.70
2019-04-14T05:00:53.929Z,21.57
2019-04-14T05:03:42.816Z,20.80
2019-04-14T05:07:12.180Z,23.15
2019-04-14T05:10:20.182Z,20.50
2019-04-14T05:16:19.216Z,18.52
2019-04-14T05:19:18.572Z,19.48
2019-04-14T05:22:00.576Z,18.65
2019-04-14T05:24:50.776Z,20.23
2019-04-14T05:27:40.930Z,20.12
2019-04-14T05:30:31.345Z,21.52
2019-04-14T05:33:14.151Z,17.82
2019-04-14T05:36:04.135Z,20.00
2019-04-14T05:38:54.075Z,19.75
2019-04-14T05:41:57.082Z,21.75
2019-04-14T05:44:34.723Z,23.20
2019-04-14T05:47:26.213Z,23.22
2019-04-14T05:50:15.947Z,21.07
2019-04-14T05:53:04.858Z,20.92
2019-04-14T05:55:54.619Z,21.85
2019-04-14T05:58:44.796Z,20.12
2019-04-14T06:04:24.879Z,19.92
2019-04-14T06:07:13.706Z,19.55
2019-04-14T06:10:02.556Z,19.48
2019-04-14T06:12:51.383Z,21.35
2019-04-14T06:15:40.238Z,22.73
2019-04-14T06:18:29.081Z,21.17
2019-04-14T06:21:17.946Z,20.37
2019-04-14T06:24:06.791Z,21.45
2019-04-14T06:26:55.629Z,20.00
2019-04-14T06:29:44.484Z,21.12
2019-04-14T06:32:27.854Z,21.30
2019-04-14T06:35:35.726Z,19.23
2019-04-14T06:38:43.586Z,21.20
2019-04-14T06:41:32.471Z,19.17
2019-04-14T06:44:21.276Z,19.48
2019-04-14T06:47:10.213Z,20.77
2019-04-14T06:49:59.049Z,20.68
2019-04-14T06:52:47.877Z,19.65
2019-04-14T06:55:36.722Z,18.15
2019-04-14T06:58:25.571Z,17.45
2019-04-14T07:01:14.407Z,16.55
2019-04-14T07:04:03.273Z,16.87
2019-04-14T07:06:32.733Z,15.75
2019-04-14T07:09:21.590Z,16.48
2019-04-14T07:12:10.504Z,16.50
2019-04-14T07:14:59.454Z,16.57
2019-04-14T07:17:48.300Z,14.75
2019-04-14T07:20:37.225Z,18.25
2019-04-14T07:23:26.205Z,16.67
2019-04-14T07:26:15.064Z,14.70
2019-04-14T07:29:04.048Z,14.23
2019-04-14T07:38:20.920Z,13.90
2019-04-14T07:44:38.346Z,13.03
2019-04-14T07:47:46.191Z,12.23
2019-04-14T07:56:49.552Z,14.53
2019-04-14T08:03:06.818Z,11.97
2019-04-14T08:05:55.678Z,12.82
2019-04-14T08:08:44.546Z,12.40
2019-04-14T08:11:33.818Z,14.10
2019-04-14T08:14:41.756Z,12.37
2019-04-14T08:17:30.585Z,12.23
2019-04-14T08:20:27.414Z,12.30
2019-04-14T08:23:10.081Z,11.60
2019-04-14T08:25:59.024Z,11.30
2019-04-14T08:28:47.861Z,11.03
2019-04-14T08:31:36.724Z,12.57
2019-04-14T08:34:18.554Z,10.53
2019-04-14T08:37:07.487Z,11.37
2019-04-14T08:39:56.317Z,11.50
2019-04-14T08:43:04.190Z,11.80
2019-04-14T08:49:21.488Z,12.40
2019-04-14T08:52:29.472Z,11.97
2019-04-14T08:55:37.362Z,12.73
2019-04-14T08:58:45.212Z,10.53
2019-04-14T09:01:53.087Z,12.10
2019-04-14T09:05:00.972Z,11.80
2019-04-14T09:11:18.256Z,11.63
2019-04-14T09:14:07.112Z,11.30
2019-04-14T09:16:55.949Z,10.97
2019-04-14T09:19:44.830Z,11.47
2019-04-14T09:22:33.659Z,11.77
2019-04-14T09:25:22.508Z,10.63
2019-04-14T09:28:11.494Z,10.70
2019-04-14T09:31:00.335Z,11.27
2019-04-14T09:33:42.497Z,11.27
2019-04-14T09:36:31.332Z,10.10
2019-04-14T09:39:20.187Z,11.57
2019-04-14T09:42:09.007Z,12.40
2019-04-14T09:44:57.904Z,11.70
2019-04-14T09:47:46.702Z,9.97
2019-04-14T09:50:35.818Z,12.03
2019-04-14T09:56:18.699Z,10.50
2019-04-14T09:59:07.617Z,10.10
2019-04-14T10:01:56.615Z,10.67
2019-04-14T10:05:04.591Z,11.47
2019-04-14T10:07:53.494Z,11.70
2019-04-14T10:10:42.354Z,11.83
2019-04-14T10:13:31.276Z,11.77
2019-04-14T10:16:39.204Z,10.73
2019-04-14T10:19:28.037Z,10.83
2019-04-14T10:22:16.889Z,11.43
2019-04-14T10:25:26.615Z,11.97
2019-04-14T10:28:15.478Z,10.80
2019-04-14T10:31:04.412Z,9.70
2019-04-14T10:33:44.287Z,11.10
2019-04-14T10:36:33.140Z,10.40
2019-04-14T10:39:21.984Z,11.57
2019-04-14T10:42:10.859Z,12.07
2019-04-14T10:44:59.729Z,10.53
2019-04-14T10:47:48.556Z,10.23
2019-04-14T10:50:37.427Z,10.87
2019-04-14T10:53:26.619Z,11.53
2019-04-14T10:59:09.752Z,9.40
2019-04-14T11:01:58.682Z,10.53
2019-04-14T11:04:47.597Z,9.97
2019-04-14T11:10:31.144Z,9.40
2019-04-14T11:13:20.023Z,10.53
2019-04-14T11:16:09.038Z,10.60
2019-04-14T11:19:17.076Z,8.47
2019-04-14T11:22:06.171Z,9.80
2019-04-14T11:24:55.101Z,9.50
2019-04-14T11:27:43.943Z,9.13
2019-04-14T11:30:33.028Z,9.60
2019-04-14T11:39:26.298Z,9.57
2019-04-14T11:42:34.366Z,10.97
2019-04-14T11:45:23.471Z,9.60
2019-04-14T11:48:12.330Z,10.07
2019-04-14T11:51:01.171Z,9.57
2019-04-14T11:53:50.008Z,8.73
2019-04-14T11:56:38.840Z,8.90
2019-04-14T11:59:46.766Z,8.67
2019-04-14T12:02:54.612Z,8.97
2019-04-14T12:06:02.508Z,9.17
2019-04-14T12:09:10.394Z,7.50
2019-04-14T12:14:59.004Z,8.80
2019-04-14T12:17:47.830Z,8.30
2019-04-14T12:20:36.688Z,9.50
2019-04-14T12:23:44.613Z,9.10
2019-04-14T12:26:33.438Z,9.00
2019-04-14T12:29:23.556Z,8.60
2019-04-14T12:32:12.930Z,8.57
2019-04-14T12:34:55.002Z,9.07
2019-04-14T12:37:43.833Z,8.07
2019-04-14T12:40:32.694Z,8.30
2019-04-14T12:43:40.563Z,8.80
2019-04-14T12:46:48.451Z,8.13
2019-04-14T12:49:56.321Z,9.30
2019-04-14T12:52:45.167Z,8.90
2019-04-14T12:59:08.202Z,8.77
2019-04-14T13:01:56.833Z,8.77
2019-04-14T13:04:45.666Z,8.50
2019-04-14T13:07:53.743Z,7.97
2019-04-14T13:10:42.796Z,9.20
2019-04-14T13:13:31.627Z,9.07
2019-04-14T13:16:20.456Z,7.03
2019-04-14T13:19:09.375Z,8.53
2019-04-14T13:21:58.197Z,7.97
2019-04-14T13:24:47.081Z,9.50
2019-04-14T13:27:35.950Z,9.00
2019-04-14T13:33:25.386Z,9.90
2019-04-14T13:36:07.286Z,9.43
2019-04-14T13:38:56.174Z,8.87
2019-04-14T13:41:45.047Z,10.20
2019-04-14T13:44:33.930Z,9.60
2019-04-14T13:47:22.788Z,9.80
2019-04-14T13:50:11.773Z,9.83
2019-04-14T13:53:00.606Z,9.60
2019-04-14T13:55:49.463Z,9.33
2019-04-14T13:58:40.752Z,10.20
2019-04-14T14:01:29.040Z,9.43
2019-04-14T14:04:18.567Z,9.10
2019-04-14T14:13:37.133Z,9.03
2019-04-14T14:16:25.751Z,10.30
2019-04-14T14:22:29.221Z,9.70
2019-04-14T14:25:37.133Z,9.63
2019-04-14T14:28:26.039Z,9.70
2019-04-14T14:31:14.966Z,9.33
2019-04-14T14:34:03.969Z,8.83
2019-04-14T14:36:46.282Z,8.50
2019-04-14T14:39:35.205Z,8.70
2019-04-14T14:42:24.064Z,9.80
2019-04-14T14:45:32.301Z,9.60
2019-04-14T14:48:40.176Z,8.97
2019-04-14T14:51:48.071Z,9.07
2019-04-14T14:54:36.981Z,9.57
2019-04-14T15:00:39.189Z,8.50
2019-04-14T15:03:28.038Z,8.47
2019-04-14T15:06:16.977Z,9.50
2019-04-14T15:09:26.723Z,9.90
2019-04-14T15:12:15.614Z,9.57
2019-04-14T15:18:19.955Z,9.60
2019-04-14T15:21:08.867Z,8.50
2019-04-14T15:23:57.795Z,8.97
2019-04-14T15:26:46.719Z,7.80
2019-04-14T15:29:35.501Z,9.10
2019-04-14T15:32:05.141Z,9.37
2019-04-14T15:34:54.309Z,9.63
2019-04-14T15:37:36.639Z,9.63
2019-04-14T15:40:25.480Z,8.73
2019-04-14T15:43:33.379Z,8.67
2019-04-14T15:46:22.206Z,9.30
2019-04-14T15:49:11.063Z,8.70
2019-04-14T15:51:59.977Z,9.37
2019-04-14T15:54:48.887Z,9.93
2019-04-14T15:57:56.731Z,8.23
2019-04-14T16:01:04.600Z,8.53
2019-04-14T16:04:12.462Z,9.00
2019-04-14T16:07:20.434Z,8.73
2019-04-14T16:13:37.800Z,9.00
2019-04-14T16:19:55.167Z,8.40
2019-04-14T16:22:44.126Z,9.27
2019-04-14T16:25:52.027Z,8.20
2019-04-14T16:31:59.634Z,10.63
2019-04-14T16:37:37.682Z,8.37
2019-04-14T16:40:45.647Z,8.53
2019-04-14T16:43:34.501Z,8.37
2019-04-14T16:46:42.443Z,8.73
2019-04-14T16:49:31.294Z,8.43
2019-04-14T16:52:39.182Z,7.80
2019-04-14T17:04:29.098Z,8.50
2019-04-14T17:07:37.222Z,7.55
2019-04-14T17:10:26.094Z,8.20
2019-04-14T17:13:15.004Z,9.13
2019-04-14T17:16:23.313Z,8.18
2019-04-14T17:22:27.121Z,8.33
2019-04-14T17:25:35.054Z,7.67
2019-04-14T17:34:38.325Z,8.58
2019-04-14T17:37:39.363Z,7.55
2019-04-14T17:43:27.811Z,8.10
2019-04-14T17:46:35.683Z,7.83
2019-04-14T17:49:43.600Z,8.30
2019-04-14T17:52:51.421Z,8.63
2019-04-14T17:55:59.296Z,9.03
2019-04-14T17:59:07.181Z,8.43
2019-04-14T18:05:10.810Z,9.20
2019-04-14T18:11:14.576Z,8.38
2019-04-14T18:14:22.574Z,9.38
2019-04-14T18:17:30.472Z,8.65
2019-04-14T18:23:28.853Z,9.60
2019-04-14T18:26:36.782Z,8.90
2019-04-14T18:29:44.688Z,9.15
2019-04-14T18:32:52.602Z,7.85
2019-04-14T18:36:00.480Z,9.78
2019-04-14T18:38:43.695Z,9.10
2019-04-14T18:41:51.570Z,10.40
2019-04-14T18:44:59.537Z,8.78
2019-04-14T18:48:07.560Z,7.42
2019-04-14T18:50:56.259Z,8.48
2019-04-14T18:54:04.106Z,9.00
2019-04-14T19:02:48.392Z,8.68
2019-04-14T19:05:37.340Z,8.18
2019-04-14T19:08:26.146Z,8.38
2019-04-14T19:11:15.002Z,9.13
2019-04-14T19:14:23.139Z,7.87
2019-04-14T19:17:31.194Z,10.15
2019-04-14T19:23:20.027Z,8.00
2019-04-14T19:26:28.053Z,8.73
2019-04-14T19:29:36.004Z,9.58
2019-04-14T19:35:32.623Z,8.35
2019-04-14T19:38:14.813Z,8.53
2019-04-14T19:41:03.692Z,7.85
2019-04-14T19:43:52.607Z,8.60
2019-04-14T19:46:41.407Z,7.97
2019-04-14T19:49:30.250Z,8.85
2019-04-14T19:52:19.212Z,8.80
2019-04-14T19:55:19.738Z,7.15
2019-04-14T19:57:58.594Z,7.08
2019-04-14T20:01:07.312Z,8.10
2019-04-14T20:03:57.196Z,8.45
2019-04-14T20:07:05.270Z,7.67
2019-04-14T20:09:54.129Z,8.80
2019-04-14T20:12:42.962Z,9.73
2019-04-14T20:15:50.968Z,7.87
2019-04-14T20:19:09.799Z,7.17
2019-04-14T20:22:08.459Z,7.85
2019-04-14T20:25:16.336Z,7.30
2019-04-14T20:34:20.498Z,8.08
2019-04-14T20:37:28.360Z,9.18
2019-04-14T20:40:09.995Z,7.28
2019-04-14T20:42:58.828Z,8.45
2019-04-14T20:45:47.736Z,8.15
2019-04-14T20:48:36.585Z,7.50
2019-04-14T20:51:44.574Z,9.05
2019-04-14T20:54:33.474Z,8.88
2019-04-14T20:57:41.357Z,8.48
2019-04-14T21:06:44.848Z,7.83
2019-04-14T21:09:52.799Z,7.92
2019-04-14T21:13:00.675Z,9.30
2019-04-14T21:16:12.815Z,8.45
2019-04-14T21:22:13.750Z,8.68
2019-04-14T21:25:21.688Z,8.30
2019-04-14T21:28:29.631Z,7.25
2019-04-14T21:34:37.208Z,6.70
2019-04-14T21:37:45.076Z,8.35
2019-04-14T21:40:45.740Z,6.28
2019-04-14T21:43:34.612Z,8.40
2019-04-14T21:46:42.648Z,8.38
2019-04-14T21:49:31.540Z,8.23
2019-04-14T21:52:39.430Z,7.25
2019-04-14T21:55:28.313Z,9.58
2019-04-14T22:01:57.512Z,7.60
2019-04-14T22:05:05.401Z,8.23
2019-04-14T22:08:13.299Z,6.97
2019-04-14T22:14:11.609Z,9.48
2019-04-14T22:17:00.454Z,7.85
2019-04-14T22:19:49.430Z,8.40
2019-04-14T22:22:39.844Z,8.03
2019-04-14T22:28:23.315Z,12.28
2019-04-14T22:31:12.191Z,10.50
2019-04-14T22:34:01.167Z,9.50
2019-04-14T22:37:09.134Z,9.50
2019-04-14T22:39:51.363Z,7.65
2019-04-14T22:42:40.217Z,7.15
2019-04-14T22:45:29.141Z,7.40
2019-04-14T22:48:18.063Z,7.25
2019-04-14T22:51:06.913Z,7.85
2019-04-14T22:53:55.752Z,8.60
2019-04-14T22:56:44.652Z,7.35
2019-04-14T22:59:33.475Z,7.17
2019-04-14T23:02:41.346Z,7.58
2019-04-14T23:05:49.209Z,6.58
2019-04-14T23:11:52.590Z,6.20
2019-04-14T23:15:00.540Z,6.05
2019-04-14T23:18:08.414Z,5.92
2019-04-14T23:21:16.327Z,5.03
2019-04-14T23:24:24.268Z,5.28
2019-04-14T23:27:13.254Z,6.33
2019-04-14T23:30:02.095Z,6.50
2019-04-14T23:32:50.908Z,6.00
2019-04-14T23:35:39.772Z,5.10
2019-04-14T23:38:28.586Z,6.20
2019-04-14T23:41:17.423Z,4.45
2019-04-14T23:44:06.386Z,5.10
2019-04-14T23:46:55.186Z,5.72
2019-04-14T23:49:44.018Z,5.12
2019-04-14T23:52:32.862Z,4.45
2019-04-14T23:55:40.799Z,5.30
2019-04-14T23:58:29.688Z,5.30
